Información del aeropuerto LRSV

Información de pista
Pista 16 Longitud 8070 ft Anchura 148 ft
Elevación 1375 ft Umbral ft Rumbo 163
Pista 34 Longitud 8070 ft Anchura 148 ft
Elevación 1330 ft Umbral ft Rumbo 343
Frecuencias del aeropuerto
Tipo GCA Nombre PRECISION Frecuencia 120.9 MHZ
Tipo TWR Nombre TWR Frecuencia 118.3 MHZ
Radioayudas del aeropuerto
Tipo VOR-DME Nombre Suceava Frecuencia 112300 KHZ
Información meteorológica del aeropuerto y NOTAM
ADDS - METARS form results

(1853 UTC 08 December 2022)
Data provider http://aviationweather.gov/metar/data/
 
METAR text: LRSV 081830Z 00000KT 0800 R34/1500 FZFG NSC M01/M01 Q1014
Conditions at: LRSV (SUCEAVA/SALCEA , RO) observed 1830 UTC 08 December 2022
Temperature: -1.0°C (30°F)
Dewpoint: -1.0°C (30°F) [RH = 100%]
Pressure (altimeter): 29.94 inches Hg (1014.0 mb)
Winds: calm
Visibility: 0.50 miles (0.80 km)
Ceiling: at least 12,000 feet AGL
Clouds: sky clear below 12,000 feet AGL
Weather: FZFG  (freezing fog)

METAR text: LRSV 081800Z 00000KT 3000 BR NSC M00/M01 Q1014
Conditions at: LRSV (SUCEAVA/SALCEA , RO) observed 1800 UTC 08 December 2022
Temperature: 0.0°C (32°F)
Dewpoint: -1.0°C (30°F) [RH = 93%]
Pressure (altimeter): 29.94 inches Hg (1014.0 mb)
Winds: calm
Visibility: 1.86 miles (2.99 km)
Ceiling: at least 12,000 feet AGL
Clouds: sky clear below 12,000 feet AGL
Weather: BR  (mist)

Forecast for: LRSV (SUCEAVA/SALCEA , RO)
Text: TAF LRSV 081700Z 0818/0903 07004KT CAVOK
Forecast period: 1800 UTC 08 December 2022 to 0300 UTC 09 December 2022
Forecast type: FROM: standard forecast or significant change
Winds: from the ENE (70 degrees) at 5 MPH (4 knots; 2.1 m/s)
Visibility: 6 or more miles (10+ km)
Ceiling: unknown
Clouds: missing
Weather: NSW  (no significant weather)
Text: BECMG 0818/0820 5000 BR
Forecast period: 1800 to 2000 UTC 08 December 2022
Forecast type: BECOMING: Conditions expected to become as follows by 2000 UTC 08 December 2022
Winds: from the ENE (70 degrees) at 5 MPH (4 knots; 2.1 m/s)
Visibility: 3 miles (5 km)
Ceiling: unknown
Clouds: missing
Weather: BR  (mist)
Text: BECMG 0820/0822 3000 -RASN BKN010 BKN030
Forecast period: 2000 UTC 08 December 2022 to 0300 UTC 09 December 2022
Forecast type: BECOMING: Conditions expected to become as follows by 2200 UTC 08 December 2022
Winds: from the ENE (70 degrees) at 5 MPH (4 knots; 2.1 m/s)
Visibility: 1.86 miles (2.99 km)
Ceiling: 1000 feet AGL
Clouds: broken clouds at 1000 feet AGL
broken clouds at 3000 feet AGL
Weather: -RA -SN  (light rain, light snow)
Text: PROB40
Forecast period: 2200 UTC 08 December 2022 to 0200 UTC 09 December 2022
Forecast type: TEMPORARY: The following changes expected for less than half the time period
Visibility: 0.93 miles (1.50 km)
Ceiling: 500 feet AGL
Clouds: overcast cloud deck at 500 feet AGL
Weather: SN  (moderate snow)